sensor_id;sensor_type;location;lat;lon;timestamp;P1;durP1;ratioP1;P2;durP2;ratioP2
71503;SDS011;59323;50.874;7.028;2023-02-15T00:00:03;40.50;;;13.97;;
71503;SDS011;59323;50.874;7.028;2023-02-15T00:02:30;40.20;;;14.45;;
71503;SDS011;59323;50.874;7.028;2023-02-15T00:04:56;40.57;;;15.13;;
71503;SDS011;59323;50.874;7.028;2023-02-15T00:07:21;40.13;;;14.52;;
71503;SDS011;59323;50.874;7.028;2023-02-15T00:09:46;35.80;;;13.50;;
71503;SDS011;59323;50.874;7.028;2023-02-15T00:12:12;42.10;;;15.67;;
71503;SDS011;59323;50.874;7.028;2023-02-15T00:14:39;35.28;;;13.55;;
71503;SDS011;59323;50.874;7.028;2023-02-15T00:17:04;35.63;;;13.53;;
71503;SDS011;59323;50.874;7.028;2023-02-15T00:19:30;40.70;;;14.97;;
71503;SDS011;59323;50.874;7.028;2023-02-15T00:21:55;37.22;;;14.48;;
71503;SDS011;59323;50.874;7.028;2023-02-15T00:24:21;42.47;;;13.93;;
71503;SDS011;59323;50.874;7.028;2023-02-15T00:26:47;40.87;;;15.23;;
71503;SDS011;59323;50.874;7.028;2023-02-15T00:29:13;37.55;;;15.07;;
71503;SDS011;59323;50.874;7.028;2023-02-15T00:31:40;37.60;;;13.85;;
71503;SDS011;59323;50.874;7.028;2023-02-15T00:34:07;38.50;;;14.85;;
71503;SDS011;59323;50.874;7.028;2023-02-15T00:36:37;35.22;;;13.93;;
71503;SDS011;59323;50.874;7.028;2023-02-15T00:39:03;41.70;;;14.50;;
71503;SDS011;59323;50.874;7.028;2023-02-15T00:41:32;35.33;;;13.55;;
71503;SDS011;59323;50.874;7.028;2023-02-15T00:43:58;37.20;;;14.05;;
71503;SDS011;59323;50.874;7.028;2023-02-15T00:46:23;39.90;;;13.47;;
71503;SDS011;59323;50.874;7.028;2023-02-15T00:48:49;40.37;;;13.83;;
71503;SDS011;59323;50.874;7.028;2023-02-15T00:51:14;34.70;;;12.90;;
71503;SDS011;59323;50.874;7.028;2023-02-15T00:53:40;38.90;;;14.23;;
71503;SDS011;59323;50.874;7.028;2023-02-15T00:56:05;39.90;;;14.30;;
71503;SDS011;59323;50.874;7.028;2023-02-15T00:58:31;38.80;;;14.87;;
71503;SDS011;59323;50.874;7.028;2023-02-15T01:01:01;37.50;;;14.60;;
71503;SDS011;59323;50.874;7.028;2023-02-15T01:03:28;44.65;;;14.90;;
71503;SDS011;59323;50.874;7.028;2023-02-15T01:05:53;38.10;;;14.20;;
71503;SDS011;59323;50.874;7.028;2023-02-15T01:08:19;36.70;;;14.70;;
71503;SDS011;59323;50.874;7.028;2023-02-15T01:10:44;41.28;;;14.70;;
71503;SDS011;59323;50.874;7.028;2023-02-15T01:13:12;39.13;;;14.03;;
71503;SDS011;59323;50.874;7.028;2023-02-15T01:15:37;43.25;;;14.93;;
71503;SDS011;59323;50.874;7.028;2023-02-15T01:18:03;36.43;;;13.80;;
71503;SDS011;59323;50.874;7.028;2023-02-15T01:20:28;38.43;;;13.77;;
71503;SDS011;59323;50.874;7.028;2023-02-15T01:22:54;39.50;;;14.47;;
71503;SDS011;59323;50.874;7.028;2023-02-15T01:25:22;40.97;;;14.55;;
71503;SDS011;59323;50.874;7.028;2023-02-15T01:27:48;37.25;;;13.02;;
71503;SDS011;59323;50.874;7.028;2023-02-15T01:30:14;41.73;;;15.37;;
71503;SDS011;59323;50.874;7.028;2023-02-15T01:32:40;36.17;;;13.48;;
71503;SDS011;59323;50.874;7.028;2023-02-15T01:35:05;37.72;;;13.38;;
71503;SDS011;59323;50.874;7.028;2023-02-15T01:37:32;38.70;;;13.77;;
71503;SDS011;59323;50.874;7.028;2023-02-15T01:39:58;36.63;;;12.77;;
71503;SDS011;59323;50.874;7.028;2023-02-15T01:42:25;37.33;;;13.30;;
71503;SDS011;59323;50.874;7.028;2023-02-15T01:47:28;37.70;;;13.85;;
71503;SDS011;59323;50.874;7.028;2023-02-15T01:50:37;40.70;;;13.90;;
71503;SDS011;59323;50.874;7.028;2023-02-15T01:52:48;34.77;;;12.33;;
71503;SDS011;59323;50.874;7.028;2023-02-15T01:55:16;41.50;;;13.27;;
71503;SDS011;59323;50.874;7.028;2023-02-15T01:57:42;40.58;;;13.68;;
71503;SDS011;59323;50.874;7.028;2023-02-15T02:00:08;39.10;;;14.03;;
71503;SDS011;59323;50.874;7.028;2023-02-15T02:02:34;38.50;;;14.48;;
71503;SDS011;59323;50.874;7.028;2023-02-15T02:05:01;37.85;;;12.93;;
71503;SDS011;59323;50.874;7.028;2023-02-15T02:07:32;35.25;;;14.43;;
71503;SDS011;59323;50.874;7.028;2023-02-15T02:10:03;36.60;;;13.90;;
71503;SDS011;59323;50.874;7.028;2023-02-15T02:12:30;38.25;;;13.57;;
71503;SDS011;59323;50.874;7.028;2023-02-15T02:14:56;38.17;;;13.35;;
71503;SDS011;59323;50.874;7.028;2023-02-15T02:26:07;39.05;;;12.57;;
71503;SDS011;59323;50.874;7.028;2023-02-15T02:29:12;37.25;;;12.25;;
71503;SDS011;59323;50.874;7.028;2023-02-15T02:31:43;35.53;;;11.70;;
71503;SDS011;59323;50.874;7.028;2023-02-15T02:34:25;39.58;;;12.25;;
71503;SDS011;59323;50.874;7.028;2023-02-15T02:44:54;36.70;;;11.98;;
71503;SDS011;59323;50.874;7.028;2023-02-15T02:47:42;33.65;;;12.82;;
71503;SDS011;59323;50.874;7.028;2023-02-15T02:50:14;40.60;;;12.67;;
71503;SDS011;59323;50.874;7.028;2023-02-15T02:52:48;40.58;;;12.77;;
71503;SDS011;59323;50.874;7.028;2023-02-15T02:55:20;36.92;;;12.43;;
71503;SDS011;59323;50.874;7.028;2023-02-15T02:57:53;37.22;;;13.43;;
71503;SDS011;59323;50.874;7.028;2023-02-15T03:00:23;34.55;;;12.15;;
71503;SDS011;59323;50.874;7.028;2023-02-15T03:02:52;35.97;;;13.17;;
71503;SDS011;59323;50.874;7.028;2023-02-15T03:05:24;40.47;;;13.35;;
71503;SDS011;59323;50.874;7.028;2023-02-15T03:07:52;36.95;;;12.43;;
71503;SDS011;59323;50.874;7.028;2023-02-15T03:10:21;36.03;;;12.07;;
71503;SDS011;59323;50.874;7.028;2023-02-15T03:12:48;43.75;;;12.95;;
71503;SDS011;59323;50.874;7.028;2023-02-15T03:15:17;37.70;;;12.53;;
71503;SDS011;59323;50.874;7.028;2023-02-15T03:17:47;36.50;;;12.02;;
71503;SDS011;59323;50.874;7.028;2023-02-15T03:20:22;34.97;;;12.90;;
71503;SDS011;59323;50.874;7.028;2023-02-15T03:22:55;32.33;;;11.75;;
71503;SDS011;59323;50.874;7.028;2023-02-15T03:25:44;36.67;;;12.45;;
71503;SDS011;59323;50.874;7.028;2023-02-15T03:28:15;35.70;;;12.50;;
71503;SDS011;59323;50.874;7.028;2023-02-15T03:30:44;36.60;;;11.88;;
71503;SDS011;59323;50.874;7.028;2023-02-15T03:33:12;32.05;;;11.80;;
71503;SDS011;59323;50.874;7.028;2023-02-15T03:38:20;34.78;;;12.65;;
71503;SDS011;59323;50.874;7.028;2023-02-15T03:40:50;38.03;;;11.67;;
71503;SDS011;59323;50.874;7.028;2023-02-15T03:43:38;37.08;;;12.50;;
71503;SDS011;59323;50.874;7.028;2023-02-15T03:48:46;34.45;;;12.00;;
71503;SDS011;59323;50.874;7.028;2023-02-15T03:51:22;41.42;;;12.40;;
71503;SDS011;59323;50.874;7.028;2023-02-15T03:56:29;37.17;;;11.70;;
71503;SDS011;59323;50.874;7.028;2023-02-15T03:58:55;32.38;;;11.13;;
71503;SDS011;59323;50.874;7.028;2023-02-15T04:04:26;35.50;;;11.85;;
71503;SDS011;59323;50.874;7.028;2023-02-15T04:06:57;32.63;;;11.30;;
71503;SDS011;59323;50.874;7.028;2023-02-15T04:09:23;37.35;;;12.45;;
71503;SDS011;59323;50.874;7.028;2023-02-15T04:12:07;33.75;;;11.45;;
71503;SDS011;59323;50.874;7.028;2023-02-15T04:14:33;34.77;;;11.40;;
71503;SDS011;59323;50.874;7.028;2023-02-15T04:17:16;36.10;;;11.60;;
71503;SDS011;59323;50.874;7.028;2023-02-15T04:19:42;36.63;;;11.77;;
71503;SDS011;59323;50.874;7.028;2023-02-15T04:22:25;37.30;;;12.05;;
71503;SDS011;59323;50.874;7.028;2023-02-15T04:25:09;36.03;;;11.75;;
71503;SDS011;59323;50.874;7.028;2023-02-15T04:27:38;30.53;;;10.63;;
71503;SDS011;59323;50.874;7.028;2023-02-15T04:30:05;35.03;;;11.05;;
71503;SDS011;59323;50.874;7.028;2023-02-15T04:32:31;34.58;;;11.95;;
71503;SDS011;59323;50.874;7.028;2023-02-15T04:34:57;40.03;;;12.37;;
71503;SDS011;59323;50.874;7.028;2023-02-15T04:37:22;36.63;;;12.50;;
71503;SDS011;59323;50.874;7.028;2023-02-15T04:39:47;32.53;;;11.13;;
71503;SDS011;59323;50.874;7.028;2023-02-15T04:42:14;33.47;;;10.80;;
71503;SDS011;59323;50.874;7.028;2023-02-15T04:44:40;37.50;;;12.80;;
71503;SDS011;59323;50.874;7.028;2023-02-15T04:47:05;32.47;;;10.93;;
71503;SDS011;59323;50.874;7.028;2023-02-15T04:49:30;40.13;;;13.17;;
71503;SDS011;59323;50.874;7.028;2023-02-15T04:51:55;35.40;;;11.90;;
71503;SDS011;59323;50.874;7.028;2023-02-15T04:54:21;31.70;;;10.87;;
71503;SDS011;59323;50.874;7.028;2023-02-15T04:56:46;36.47;;;12.03;;
71503;SDS011;59323;50.874;7.028;2023-02-15T04:59:12;34.53;;;11.33;;
71503;SDS011;59323;50.874;7.028;2023-02-15T05:01:37;33.87;;;12.20;;
71503;SDS011;59323;50.874;7.028;2023-02-15T05:04:03;34.80;;;12.57;;
71503;SDS011;59323;50.874;7.028;2023-02-15T05:06:31;35.97;;;12.18;;
71503;SDS011;59323;50.874;7.028;2023-02-15T05:08:56;34.57;;;10.53;;
71503;SDS011;59323;50.874;7.028;2023-02-15T05:11:23;33.42;;;11.88;;
71503;SDS011;59323;50.874;7.028;2023-02-15T05:13:49;33.50;;;11.40;;
71503;SDS011;59323;50.874;7.028;2023-02-15T05:16:14;33.17;;;12.33;;
71503;SDS011;59323;50.874;7.028;2023-02-15T05:18:39;30.15;;;10.98;;
71503;SDS011;59323;50.874;7.028;2023-02-15T05:21:05;35.23;;;12.23;;
71503;SDS011;59323;50.874;7.028;2023-02-15T05:23:30;31.57;;;12.00;;
71503;SDS011;59323;50.874;7.028;2023-02-15T05:25:55;29.87;;;11.47;;
71503;SDS011;59323;50.874;7.028;2023-02-15T05:28:39;34.70;;;13.02;;
71503;SDS011;59323;50.874;7.028;2023-02-15T05:31:09;33.27;;;11.13;;
71503;SDS011;59323;50.874;7.028;2023-02-15T05:33:37;33.00;;;10.63;;
71503;SDS011;59323;50.874;7.028;2023-02-15T05:36:03;27.20;;;10.90;;
71503;SDS011;59323;50.874;7.028;2023-02-15T05:38:29;30.90;;;11.80;;
71503;SDS011;59323;50.874;7.028;2023-02-15T05:40:54;29.27;;;10.83;;
71503;SDS011;59323;50.874;7.028;2023-02-15T05:43:20;30.45;;;10.18;;
71503;SDS011;59323;50.874;7.028;2023-02-15T05:45:49;31.00;;;11.20;;
71503;SDS011;59323;50.874;7.028;2023-02-15T05:48:17;28.67;;;10.00;;
71503;SDS011;59323;50.874;7.028;2023-02-15T05:50:43;34.15;;;11.95;;
71503;SDS011;59323;50.874;7.028;2023-02-15T05:53:09;29.25;;;10.63;;
71503;SDS011;59323;50.874;7.028;2023-02-15T05:55:38;31.73;;;10.70;;
71503;SDS011;59323;50.874;7.028;2023-02-15T05:58:05;29.90;;;11.55;;
71503;SDS011;59323;50.874;7.028;2023-02-15T06:00:30;31.38;;;11.00;;
71503;SDS011;59323;50.874;7.028;2023-02-15T06:02:56;29.97;;;10.53;;
71503;SDS011;59323;50.874;7.028;2023-02-15T06:05:22;29.87;;;11.30;;
71503;SDS011;59323;50.874;7.028;2023-02-15T06:07:47;30.00;;;11.00;;
71503;SDS011;59323;50.874;7.028;2023-02-15T06:10:13;29.93;;;10.70;;
71503;SDS011;59323;50.874;7.028;2023-02-15T06:12:38;30.50;;;10.45;;
71503;SDS011;59323;50.874;7.028;2023-02-15T06:15:04;31.23;;;10.93;;
71503;SDS011;59323;50.874;7.028;2023-02-15T06:17:29;28.93;;;10.97;;
71503;SDS011;59323;50.874;7.028;2023-02-15T06:19:55;30.02;;;9.93;;
71503;SDS011;59323;50.874;7.028;2023-02-15T06:22:20;27.80;;;9.93;;
71503;SDS011;59323;50.874;7.028;2023-02-15T06:24:46;35.70;;;10.57;;
71503;SDS011;59323;50.874;7.028;2023-02-15T06:27:11;31.42;;;10.00;;
71503;SDS011;59323;50.874;7.028;2023-02-15T06:29:37;26.63;;;10.10;;
71503;SDS011;59323;50.874;7.028;2023-02-15T06:32:02;26.10;;;10.13;;
71503;SDS011;59323;50.874;7.028;2023-02-15T06:34:28;30.40;;;10.32;;
71503;SDS011;59323;50.874;7.028;2023-02-15T06:36:53;31.03;;;10.83;;
71503;SDS011;59323;50.874;7.028;2023-02-15T06:39:19;27.60;;;9.73;;
71503;SDS011;59323;50.874;7.028;2023-02-15T06:41:44;30.43;;;10.77;;
71503;SDS011;59323;50.874;7.028;2023-02-15T06:44:09;30.53;;;10.23;;
71503;SDS011;59323;50.874;7.028;2023-02-15T06:46:34;28.10;;;9.57;;
71503;SDS011;59323;50.874;7.028;2023-02-15T06:49:00;29.90;;;11.13;;
71503;SDS011;59323;50.874;7.028;2023-02-15T06:51:25;30.75;;;11.25;;
71503;SDS011;59323;50.874;7.028;2023-02-15T06:53:51;27.50;;;10.07;;
71503;SDS011;59323;50.874;7.028;2023-02-15T06:56:16;31.90;;;10.53;;
71503;SDS011;59323;50.874;7.028;2023-02-15T06:58:41;29.73;;;11.03;;
71503;SDS011;59323;50.874;7.028;2023-02-15T07:01:08;28.48;;;10.30;;
71503;SDS011;59323;50.874;7.028;2023-02-15T07:03:34;28.33;;;9.85;;
71503;SDS011;59323;50.874;7.028;2023-02-15T07:06:01;28.70;;;10.67;;
71503;SDS011;59323;50.874;7.028;2023-02-15T07:08:28;27.23;;;9.52;;
71503;SDS011;59323;50.874;7.028;2023-02-15T07:10:54;26.13;;;9.38;;
71503;SDS011;59323;50.874;7.028;2023-02-15T07:13:41;28.95;;;9.95;;
71503;SDS011;59323;50.874;7.028;2023-02-15T07:16:07;25.20;;;9.43;;
71503;SDS011;59323;50.874;7.028;2023-02-15T07:18:33;30.00;;;9.93;;
71503;SDS011;59323;50.874;7.028;2023-02-15T07:20:58;26.40;;;10.07;;
71503;SDS011;59323;50.874;7.028;2023-02-15T07:23:24;28.83;;;9.93;;
71503;SDS011;59323;50.874;7.028;2023-02-15T07:25:56;25.87;;;10.13;;
71503;SDS011;59323;50.874;7.028;2023-02-15T07:28:22;27.27;;;9.90;;
71503;SDS011;59323;50.874;7.028;2023-02-15T07:30:47;24.63;;;9.43;;
71503;SDS011;59323;50.874;7.028;2023-02-15T07:33:13;29.38;;;10.60;;
71503;SDS011;59323;50.874;7.028;2023-02-15T07:35:53;24.63;;;9.70;;
71503;SDS011;59323;50.874;7.028;2023-02-15T07:38:20;29.67;;;10.25;;
71503;SDS011;59323;50.874;7.028;2023-02-15T07:40:57;24.77;;;9.48;;
71503;SDS011;59323;50.874;7.028;2023-02-15T07:43:23;26.80;;;9.38;;
71503;SDS011;59323;50.874;7.028;2023-02-15T07:45:48;25.10;;;8.40;;
71503;SDS011;59323;50.874;7.028;2023-02-15T07:48:14;25.17;;;8.63;;
71503;SDS011;59323;50.874;7.028;2023-02-15T07:50:39;25.90;;;9.30;;
71503;SDS011;59323;50.874;7.028;2023-02-15T07:53:04;26.00;;;9.53;;
71503;SDS011;59323;50.874;7.028;2023-02-15T07:55:30;29.43;;;9.47;;
71503;SDS011;59323;50.874;7.028;2023-02-15T07:57:55;27.27;;;9.60;;
71503;SDS011;59323;50.874;7.028;2023-02-15T08:00:21;26.27;;;9.93;;
71503;SDS011;59323;50.874;7.028;2023-02-15T08:02:51;25.80;;;9.30;;
71503;SDS011;59323;50.874;7.028;2023-02-15T08:05:38;21.27;;;8.68;;
71503;SDS011;59323;50.874;7.028;2023-02-15T08:08:05;21.27;;;8.07;;
71503;SDS011;59323;50.874;7.028;2023-02-15T08:10:32;23.20;;;9.05;;
71503;SDS011;59323;50.874;7.028;2023-02-15T08:13:16;24.20;;;9.55;;
71503;SDS011;59323;50.874;7.028;2023-02-15T08:15:48;23.07;;;8.97;;
71503;SDS011;59323;50.874;7.028;2023-02-15T08:18:16;23.65;;;8.45;;
71503;SDS011;59323;50.874;7.028;2023-02-15T08:20:41;23.00;;;8.98;;
71503;SDS011;59323;50.874;7.028;2023-02-15T08:23:07;23.17;;;8.47;;
71503;SDS011;59323;50.874;7.028;2023-02-15T08:25:32;25.43;;;9.87;;
71503;SDS011;59323;50.874;7.028;2023-02-15T08:27:57;22.97;;;8.93;;
71503;SDS011;59323;50.874;7.028;2023-02-15T08:30:22;21.93;;;8.90;;
71503;SDS011;59323;50.874;7.028;2023-02-15T08:32:48;24.30;;;8.77;;
71503;SDS011;59323;50.874;7.028;2023-02-15T08:35:13;22.87;;;9.07;;
71503;SDS011;59323;50.874;7.028;2023-02-15T08:37:39;23.27;;;7.93;;
71503;SDS011;59323;50.874;7.028;2023-02-15T08:40:04;21.90;;;8.27;;
71503;SDS011;59323;50.874;7.028;2023-02-15T08:42:32;21.58;;;9.15;;
71503;SDS011;59323;50.874;7.028;2023-02-15T08:44:58;22.58;;;8.68;;
71503;SDS011;59323;50.874;7.028;2023-02-15T08:47:23;24.13;;;8.70;;
71503;SDS011;59323;50.874;7.028;2023-02-15T08:49:48;19.53;;;8.20;;
71503;SDS011;59323;50.874;7.028;2023-02-15T08:52:14;18.50;;;7.97;;
71503;SDS011;59323;50.874;7.028;2023-02-15T08:54:39;22.80;;;8.63;;
71503;SDS011;59323;50.874;7.028;2023-02-15T08:57:05;19.87;;;8.37;;
71503;SDS011;59323;50.874;7.028;2023-02-15T08:59:31;21.23;;;8.52;;
71503;SDS011;59323;50.874;7.028;2023-02-15T09:01:57;20.67;;;7.77;;
71503;SDS011;59323;50.874;7.028;2023-02-15T09:04:22;20.05;;;8.13;;
71503;SDS011;59323;50.874;7.028;2023-02-15T09:06:49;20.10;;;7.80;;
71503;SDS011;59323;50.874;7.028;2023-02-15T09:09:15;22.50;;;8.25;;
71503;SDS011;59323;50.874;7.028;2023-02-15T09:11:43;20.27;;;8.10;;
71503;SDS011;59323;50.874;7.028;2023-02-15T09:14:12;23.10;;;8.63;;
71503;SDS011;59323;50.874;7.028;2023-02-15T09:16:46;19.13;;;8.50;;
71503;SDS011;59323;50.874;7.028;2023-02-15T09:19:13;20.27;;;8.52;;
71503;SDS011;59323;50.874;7.028;2023-02-15T09:21:40;18.50;;;8.85;;
71503;SDS011;59323;50.874;7.028;2023-02-15T09:24:06;18.70;;;8.13;;
71503;SDS011;59323;50.874;7.028;2023-02-15T09:26:34;18.90;;;8.25;;
71503;SDS011;59323;50.874;7.028;2023-02-15T09:29:03;20.08;;;7.45;;
71503;SDS011;59323;50.874;7.028;2023-02-15T09:31:47;18.52;;;7.57;;
71503;SDS011;59323;50.874;7.028;2023-02-15T09:34:15;21.47;;;7.53;;
71503;SDS011;59323;50.874;7.028;2023-02-15T09:36:42;20.40;;;7.90;;
71503;SDS011;59323;50.874;7.028;2023-02-15T09:39:18;21.05;;;8.02;;
71503;SDS011;59323;50.874;7.028;2023-02-15T10:08:55;18.47;;;8.17;;
71503;SDS011;59323;50.874;7.028;2023-02-15T10:16:42;20.77;;;8.20;;
71503;SDS011;59323;50.874;7.028;2023-02-15T10:19:49;18.85;;;8.52;;
71503;SDS011;59323;50.874;7.028;2023-02-15T10:22:31;18.60;;;8.07;;
71503;SDS011;59323;50.874;7.028;2023-02-15T10:27:37;19.52;;;8.50;;
71503;SDS011;59323;50.874;7.028;2023-02-15T10:30:09;19.23;;;7.70;;
71503;SDS011;59323;50.874;7.028;2023-02-15T10:32:52;20.70;;;7.40;;
71503;SDS011;59323;50.874;7.028;2023-02-15T10:38:15;17.02;;;8.00;;
71503;SDS011;59323;50.874;7.028;2023-02-15T10:43:41;20.80;;;7.87;;
71503;SDS011;59323;50.874;7.028;2023-02-15T10:49:06;18.60;;;8.07;;
71503;SDS011;59323;50.874;7.028;2023-02-15T10:52:02;19.67;;;7.60;;
71503;SDS011;59323;50.874;7.028;2023-02-15T11:00:25;17.33;;;8.18;;
71503;SDS011;59323;50.874;7.028;2023-02-15T11:08:31;21.33;;;8.75;;
71503;SDS011;59323;50.874;7.028;2023-02-15T11:11:01;22.10;;;8.20;;
71503;SDS011;59323;50.874;7.028;2023-02-15T11:13:36;19.02;;;7.93;;
71503;SDS011;59323;50.874;7.028;2023-02-15T11:16:14;18.13;;;8.32;;
71503;SDS011;59323;50.874;7.028;2023-02-15T11:18:48;16.98;;;7.30;;
71503;SDS011;59323;50.874;7.028;2023-02-15T11:21:24;19.15;;;7.40;;
71503;SDS011;59323;50.874;7.028;2023-02-15T11:23:53;19.47;;;8.03;;
71503;SDS011;59323;50.874;7.028;2023-02-15T11:26:31;17.63;;;7.88;;
71503;SDS011;59323;50.874;7.028;2023-02-15T11:31:49;17.67;;;7.40;;
71503;SDS011;59323;50.874;7.028;2023-02-15T11:36:54;20.90;;;8.00;;
71503;SDS011;59323;50.874;7.028;2023-02-15T11:39:23;19.27;;;7.82;;
71503;SDS011;59323;50.874;7.028;2023-02-15T11:41:55;18.90;;;8.00;;
71503;SDS011;59323;50.874;7.028;2023-02-15T11:44:33;17.92;;;7.82;;
71503;SDS011;59323;50.874;7.028;2023-02-15T11:47:00;19.90;;;8.70;;
71503;SDS011;59323;50.874;7.028;2023-02-15T11:52:03;24.00;;;9.93;;
71503;SDS011;59323;50.874;7.028;2023-02-15T11:54:31;20.80;;;8.68;;
71503;SDS011;59323;50.874;7.028;2023-02-15T11:57:05;19.35;;;9.07;;
71503;SDS011;59323;50.874;7.028;2023-02-15T11:59:56;18.67;;;8.10;;
71503;SDS011;59323;50.874;7.028;2023-02-15T12:02:28;20.27;;;8.68;;
71503;SDS011;59323;50.874;7.028;2023-02-15T12:05:03;17.42;;;8.43;;
71503;SDS011;59323;50.874;7.028;2023-02-15T12:07:34;16.65;;;7.88;;
71503;SDS011;59323;50.874;7.028;2023-02-15T12:12:56;18.27;;;7.60;;
71503;SDS011;59323;50.874;7.028;2023-02-15T12:15:35;19.23;;;8.38;;
71503;SDS011;59323;50.874;7.028;2023-02-15T12:18:01;17.98;;;8.60;;
71503;SDS011;59323;50.874;7.028;2023-02-15T12:20:33;19.00;;;8.45;;
71503;SDS011;59323;50.874;7.028;2023-02-15T12:25:36;16.73;;;8.05;;
71503;SDS011;59323;50.874;7.028;2023-02-15T12:28:15;20.45;;;8.63;;
71503;SDS011;59323;50.874;7.028;2023-02-15T12:30:48;20.85;;;9.23;;
71503;SDS011;59323;50.874;7.028;2023-02-15T12:33:17;17.48;;;7.82;;
71503;SDS011;59323;50.874;7.028;2023-02-15T12:36:11;20.07;;;8.43;;
71503;SDS011;59323;50.874;7.028;2023-02-15T12:38:40;18.38;;;7.70;;
71503;SDS011;59323;50.874;7.028;2023-02-15T12:41:25;17.60;;;8.65;;
71503;SDS011;59323;50.874;7.028;2023-02-15T12:46:55;16.25;;;7.95;;
71503;SDS011;59323;50.874;7.028;2023-02-15T12:49:24;19.45;;;8.70;;
71503;SDS011;59323;50.874;7.028;2023-02-15T12:52:00;21.77;;;8.88;;
71503;SDS011;59323;50.874;7.028;2023-02-15T12:56:57;16.47;;;8.23;;
71503;SDS011;59323;50.874;7.028;2023-02-15T12:59:24;21.10;;;9.07;;
71503;SDS011;59323;50.874;7.028;2023-02-15T13:01:51;18.15;;;8.43;;
71503;SDS011;59323;50.874;7.028;2023-02-15T13:04:25;21.48;;;9.23;;
71503;SDS011;59323;50.874;7.028;2023-02-15T13:06:57;15.52;;;7.53;;
71503;SDS011;59323;50.874;7.028;2023-02-15T13:12:21;18.08;;;8.75;;
71503;SDS011;59323;50.874;7.028;2023-02-15T13:14:51;19.40;;;8.73;;
71503;SDS011;59323;50.874;7.028;2023-02-15T13:17:32;17.85;;;9.32;;
71503;SDS011;59323;50.874;7.028;2023-02-15T13:20:03;18.75;;;9.10;;
71503;SDS011;59323;50.874;7.028;2023-02-15T13:22:37;19.13;;;9.07;;
71503;SDS011;59323;50.874;7.028;2023-02-15T13:25:26;19.13;;;8.65;;
71503;SDS011;59323;50.874;7.028;2023-02-15T13:27:56;17.13;;;8.68;;
71503;SDS011;59323;50.874;7.028;2023-02-15T13:30:30;17.42;;;8.73;;
71503;SDS011;59323;50.874;7.028;2023-02-15T13:33:08;17.27;;;8.57;;
71503;SDS011;59323;50.874;7.028;2023-02-15T13:35:43;19.13;;;8.43;;
71503;SDS011;59323;50.874;7.028;2023-02-15T13:38:37;17.15;;;8.93;;
71503;SDS011;59323;50.874;7.028;2023-02-15T13:41:22;20.50;;;9.38;;
71503;SDS011;59323;50.874;7.028;2023-02-15T13:44:10;17.63;;;8.07;;
71503;SDS011;59323;50.874;7.028;2023-02-15T13:46:49;17.35;;;8.50;;
71503;SDS011;59323;50.874;7.028;2023-02-15T13:52:16;17.73;;;9.13;;
71503;SDS011;59323;50.874;7.028;2023-02-15T13:57:28;18.17;;;8.05;;
71503;SDS011;59323;50.874;7.028;2023-02-15T14:00:26;17.40;;;8.25;;
71503;SDS011;59323;50.874;7.028;2023-02-15T14:06:20;17.90;;;8.43;;
71503;SDS011;59323;50.874;7.028;2023-02-15T14:11:42;16.75;;;7.43;;
71503;SDS011;59323;50.874;7.028;2023-02-15T14:14:30;18.27;;;8.30;;
71503;SDS011;59323;50.874;7.028;2023-02-15T14:25:06;19.02;;;9.55;;
71503;SDS011;59323;50.874;7.028;2023-02-15T14:28:08;17.88;;;8.40;;
71503;SDS011;59323;50.874;7.028;2023-02-15T14:30:37;17.13;;;8.33;;
71503;SDS011;59323;50.874;7.028;2023-02-15T14:35:32;18.25;;;7.70;;
71503;SDS011;59323;50.874;7.028;2023-02-15T14:44:13;18.23;;;8.23;;
71503;SDS011;59323;50.874;7.028;2023-02-15T14:46:29;20.45;;;9.23;;
71503;SDS011;59323;50.874;7.028;2023-02-15T14:49:03;18.27;;;9.30;;
71503;SDS011;59323;50.874;7.028;2023-02-15T14:56:42;20.10;;;8.90;;
71503;SDS011;59323;50.874;7.028;2023-02-15T15:01:36;18.90;;;8.13;;
71503;SDS011;59323;50.874;7.028;2023-02-15T15:04:05;19.85;;;8.45;;
71503;SDS011;59323;50.874;7.028;2023-02-15T15:06:37;18.05;;;8.70;;
71503;SDS011;59323;50.874;7.028;2023-02-15T15:11:52;17.43;;;8.13;;
71503;SDS011;59323;50.874;7.028;2023-02-15T15:17:00;17.92;;;8.57;;
71503;SDS011;59323;50.874;7.028;2023-02-15T15:22:21;19.25;;;9.05;;
71503;SDS011;59323;50.874;7.028;2023-02-15T15:30:01;18.17;;;9.15;;
71503;SDS011;59323;50.874;7.028;2023-02-15T15:32:27;18.80;;;9.10;;
71503;SDS011;59323;50.874;7.028;2023-02-15T15:49:14;19.60;;;9.02;;
71503;SDS011;59323;50.874;7.028;2023-02-15T15:51:42;18.60;;;9.17;;
71503;SDS011;59323;50.874;7.028;2023-02-15T15:54:28;19.55;;;9.07;;
71503;SDS011;59323;50.874;7.028;2023-02-15T15:56:59;18.15;;;8.13;;
71503;SDS011;59323;50.874;7.028;2023-02-15T15:59:31;21.05;;;8.93;;
71503;SDS011;59323;50.874;7.028;2023-02-15T16:02:05;18.27;;;8.60;;
71503;SDS011;59323;50.874;7.028;2023-02-15T16:04:33;21.37;;;9.00;;
71503;SDS011;59323;50.874;7.028;2023-02-15T16:09:56;17.45;;;9.13;;
71503;SDS011;59323;50.874;7.028;2023-02-15T16:12:22;19.42;;;8.75;;
71503;SDS011;59323;50.874;7.028;2023-02-15T16:14:48;18.75;;;8.73;;
71503;SDS011;59323;50.874;7.028;2023-02-15T16:17:26;18.03;;;8.83;;
71503;SDS011;59323;50.874;7.028;2023-02-15T16:20:18;23.05;;;8.35;;
71503;SDS011;59323;50.874;7.028;2023-02-15T16:22:45;19.63;;;8.20;;
71503;SDS011;59323;50.874;7.028;2023-02-15T16:25:22;21.58;;;9.38;;
71503;SDS011;59323;50.874;7.028;2023-02-15T16:27:56;19.15;;;8.88;;
71503;SDS011;59323;50.874;7.028;2023-02-15T16:30:32;19.50;;;8.53;;
71503;SDS011;59323;50.874;7.028;2023-02-15T16:36:01;18.20;;;8.70;;
71503;SDS011;59323;50.874;7.028;2023-02-15T16:43:46;19.13;;;8.63;;
71503;SDS011;59323;50.874;7.028;2023-02-15T16:46:15;19.77;;;8.77;;
71503;SDS011;59323;50.874;7.028;2023-02-15T16:48:45;16.90;;;7.73;;
71503;SDS011;59323;50.874;7.028;2023-02-15T16:51:20;19.58;;;8.18;;
71503;SDS011;59323;50.874;7.028;2023-02-15T16:53:48;19.63;;;8.98;;
71503;SDS011;59323;50.874;7.028;2023-02-15T16:56:14;19.10;;;8.82;;
71503;SDS011;59323;50.874;7.028;2023-02-15T16:58:47;19.55;;;9.40;;
71503;SDS011;59323;50.874;7.028;2023-02-15T17:01:15;19.70;;;8.90;;
71503;SDS011;59323;50.874;7.028;2023-02-15T17:03:45;18.45;;;8.32;;
71503;SDS011;59323;50.874;7.028;2023-02-15T17:08:51;20.30;;;9.13;;
71503;SDS011;59323;50.874;7.028;2023-02-15T17:11:21;17.75;;;7.70;;
71503;SDS011;59323;50.874;7.028;2023-02-15T17:16:30;18.90;;;8.70;;
71503;SDS011;59323;50.874;7.028;2023-02-15T17:18:58;19.23;;;8.57;;
71503;SDS011;59323;50.874;7.028;2023-02-15T17:21:32;20.55;;;8.38;;
71503;SDS011;59323;50.874;7.028;2023-02-15T17:24:02;21.65;;;8.98;;
71503;SDS011;59323;50.874;7.028;2023-02-15T17:26:32;16.63;;;8.13;;
71503;SDS011;59323;50.874;7.028;2023-02-15T17:31:52;23.65;;;9.48;;
71503;SDS011;59323;50.874;7.028;2023-02-15T17:37:13;24.17;;;9.52;;
71503;SDS011;59323;50.874;7.028;2023-02-15T17:39:47;20.20;;;8.83;;
71503;SDS011;59323;50.874;7.028;2023-02-15T17:42:12;22.45;;;9.02;;
71503;SDS011;59323;50.874;7.028;2023-02-15T17:44:37;22.87;;;9.30;;
71503;SDS011;59323;50.874;7.028;2023-02-15T17:47:03;19.70;;;8.90;;
71503;SDS011;59323;50.874;7.028;2023-02-15T17:49:29;19.13;;;8.97;;
71503;SDS011;59323;50.874;7.028;2023-02-15T17:51:59;19.15;;;9.43;;
71503;SDS011;59323;50.874;7.028;2023-02-15T17:54:27;19.63;;;9.02;;
71503;SDS011;59323;50.874;7.028;2023-02-15T17:57:12;21.83;;;9.35;;